createdAt,value
2022-08-19T00:01:59.202Z,15.40
2022-08-19T00:04:37.259Z,15.40
2022-08-19T00:07:07.108Z,15.50
2022-08-19T00:09:34.680Z,15.40
2022-08-19T00:12:02.176Z,15.40
2022-08-19T00:14:33.512Z,15.30
2022-08-19T00:17:01.931Z,15.30
2022-08-19T00:19:29.609Z,15.20
2022-08-19T00:21:57.094Z,15.30
2022-08-19T00:24:24.431Z,15.20
2022-08-19T00:26:52.693Z,15.10
2022-08-19T00:29:22.179Z,15.10
2022-08-19T00:31:51.057Z,15.10
2022-08-19T00:34:18.396Z,15.10
2022-08-19T00:36:47.693Z,15.00
2022-08-19T00:39:17.472Z,15.00
2022-08-19T00:41:49.944Z,14.90
2022-08-19T00:44:28.033Z,14.90
2022-08-19T00:46:59.908Z,14.90
2022-08-19T00:49:41.720Z,14.90
2022-08-19T00:52:23.008Z,14.90
2022-08-19T00:54:52.686Z,14.90
2022-08-19T00:57:27.465Z,14.80
2022-08-19T01:00:02.499Z,14.80
2022-08-19T01:02:32.359Z,14.80
2022-08-19T01:05:03.940Z,14.80
2022-08-19T01:07:37.581Z,14.80
2022-08-19T01:10:13.357Z,14.80
2022-08-19T01:12:41.392Z,14.70
2022-08-19T01:15:12.722Z,14.70
2022-08-19T01:17:40.811Z,14.60
2022-08-19T01:20:13.624Z,14.60
2022-08-19T01:22:51.224Z,14.60
2022-08-19T01:25:22.679Z,14.60
2022-08-19T01:27:53.781Z,14.60
2022-08-19T01:30:29.104Z,14.50
2022-08-19T01:32:57.632Z,14.50
2022-08-19T01:35:27.693Z,14.60
2022-08-19T01:38:09.480Z,14.60
2022-08-19T01:40:40.043Z,14.60
2022-08-19T01:43:07.505Z,14.60
2022-08-19T01:45:36.177Z,14.50
2022-08-19T01:48:03.512Z,14.60
2022-08-19T01:50:33.437Z,14.50
2022-08-19T01:53:06.389Z,14.50
2022-08-19T01:55:40.910Z,14.50
2022-08-19T01:58:19.721Z,14.50
2022-08-19T02:00:48.555Z,14.50
2022-08-19T02:03:16.913Z,14.40
2022-08-19T02:05:45.126Z,14.40
2022-08-19T02:08:12.677Z,14.30
2022-08-19T02:10:44.020Z,14.30
2022-08-19T02:13:15.764Z,14.30
2022-08-19T02:15:50.484Z,14.30
2022-08-19T02:18:17.686Z,14.30
2022-08-19T02:20:45.867Z,14.30
2022-08-19T02:23:16.184Z,14.20
2022-08-19T02:25:48.944Z,14.20
2022-08-19T02:28:18.781Z,14.20
2022-08-19T02:30:47.902Z,14.20
2022-08-19T02:33:15.201Z,14.20
2022-08-19T02:35:47.929Z,14.20
2022-08-19T02:38:28.161Z,14.20
2022-08-19T02:41:06.271Z,14.20
2022-08-19T02:43:37.324Z,14.10
2022-08-19T02:46:24.323Z,14.10
2022-08-19T02:48:58.992Z,14.10
2022-08-19T02:51:30.266Z,14.10
2022-08-19T02:53:58.112Z,14.10
2022-08-19T02:56:28.404Z,14.00
2022-08-19T02:58:56.498Z,14.00
2022-08-19T03:01:32.376Z,14.00
2022-08-19T03:04:02.679Z,14.00
2022-08-19T03:06:30.715Z,14.00
2022-08-19T03:08:58.824Z,14.00
2022-08-19T03:11:31.827Z,13.90
2022-08-19T03:14:01.017Z,13.90
2022-08-19T03:16:33.215Z,13.90
2022-08-19T03:19:02.822Z,13.90
2022-08-19T03:21:35.330Z,13.90
2022-08-19T03:24:07.649Z,14.00
2022-08-19T03:26:39.938Z,13.90
2022-08-19T03:29:08.627Z,13.90
2022-08-19T03:31:44.424Z,13.90
2022-08-19T03:34:27.372Z,13.90
2022-08-19T03:37:01.532Z,13.90
2022-08-19T03:39:28.996Z,13.80
2022-08-19T03:42:32.457Z,13.80
2022-08-19T03:44:48.270Z,13.80
2022-08-19T03:47:16.363Z,13.80
2022-08-19T03:49:44.043Z,13.80
2022-08-19T03:52:11.346Z,13.80
2022-08-19T03:54:39.395Z,13.80
2022-08-19T03:57:07.123Z,13.80
2022-08-19T03:59:37.088Z,13.70
2022-08-19T04:02:11.258Z,13.70
2022-08-19T04:04:41.062Z,13.80
2022-08-19T04:07:09.267Z,13.80
2022-08-19T04:09:39.849Z,13.70
2022-08-19T04:12:07.586Z,13.70
2022-08-19T04:14:35.731Z,13.70
2022-08-19T04:17:05.781Z,13.70
2022-08-19T04:19:35.963Z,13.70
2022-08-19T04:22:04.856Z,13.70
2022-08-19T04:24:32.912Z,13.80
2022-08-19T04:27:03.562Z,13.70
2022-08-19T04:29:31.213Z,13.80
2022-08-19T04:31:59.640Z,13.70
2022-08-19T04:34:30.465Z,13.70
2022-08-19T04:36:59.734Z,13.70
2022-08-19T04:39:50.174Z,13.70
2022-08-19T04:42:37.735Z,13.60
2022-08-19T04:45:09.277Z,13.70
2022-08-19T04:47:47.740Z,13.60
2022-08-19T04:50:28.416Z,13.70
2022-08-19T04:52:57.960Z,13.60
2022-08-19T04:55:28.577Z,13.60
2022-08-19T04:57:55.902Z,13.60
2022-08-19T05:00:23.872Z,13.70
2022-08-19T05:02:51.075Z,13.70
2022-08-19T05:05:18.644Z,13.70
2022-08-19T05:07:45.847Z,13.60
2022-08-19T05:10:13.685Z,13.60
2022-08-19T05:12:40.745Z,13.60
2022-08-19T05:15:10.044Z,13.70
2022-08-19T05:17:38.934Z,13.70
2022-08-19T05:20:27.292Z,13.70
2022-08-19T05:22:54.594Z,13.70
2022-08-19T05:25:22.763Z,13.80
2022-08-19T05:27:50.092Z,13.80
2022-08-19T05:30:17.928Z,13.90
2022-08-19T05:32:45.683Z,13.90
2022-08-19T05:35:12.919Z,14.00
2022-08-19T05:37:43.915Z,14.00
2022-08-19T05:40:11.659Z,14.10
2022-08-19T05:42:39.761Z,14.20
2022-08-19T05:45:08.799Z,14.30
2022-08-19T05:47:36.525Z,14.40
2022-08-19T05:50:09.758Z,14.50
2022-08-19T05:52:39.263Z,14.50
2022-08-19T05:55:11.514Z,14.60
2022-08-19T05:57:40.611Z,14.70
2022-08-19T06:00:11.305Z,14.80
2022-08-19T06:02:39.953Z,14.90
2022-08-19T06:05:10.092Z,15.00
2022-08-19T06:07:38.200Z,15.10
2022-08-19T06:10:08.660Z,15.10
2022-08-19T06:12:36.818Z,15.20
2022-08-19T06:15:11.597Z,15.30
2022-08-19T06:17:39.304Z,15.40
2022-08-19T06:20:12.858Z,15.50
2022-08-19T06:22:47.130Z,15.60
2022-08-19T06:25:16.591Z,15.80
2022-08-19T06:28:11.633Z,15.90
2022-08-19T06:30:31.409Z,16.00
2022-08-19T06:32:58.738Z,16.10
2022-08-19T06:35:26.337Z,16.30
2022-08-19T06:37:53.546Z,16.40
2022-08-19T06:40:20.924Z,16.60
2022-08-19T06:42:55.057Z,16.70
2022-08-19T06:45:25.186Z,16.80
2022-08-19T06:48:01.516Z,17.00
2022-08-19T06:50:28.604Z,17.20
2022-08-19T06:52:55.918Z,17.40
2022-08-19T06:55:23.339Z,17.70
2022-08-19T06:57:54.180Z,17.90
2022-08-19T07:00:21.832Z,18.20
2022-08-19T07:02:54.297Z,18.40
2022-08-19T07:05:24.431Z,18.70
2022-08-19T07:07:51.497Z,19.00
2022-08-19T07:10:20.042Z,19.20
2022-08-19T07:12:47.507Z,19.40
2022-08-19T07:15:15.719Z,19.80
2022-08-19T07:17:44.272Z,19.90
2022-08-19T07:20:12.275Z,20.10
2022-08-19T07:22:40.223Z,20.30
2022-08-19T07:25:09.862Z,20.40
2022-08-19T07:27:38.042Z,20.50
2022-08-19T07:30:11.626Z,20.70
2022-08-19T07:32:40.749Z,20.80
2022-08-19T07:35:10.247Z,20.90
2022-08-19T07:37:39.203Z,21.30
2022-08-19T07:40:08.636Z,21.40
2022-08-19T07:42:36.044Z,21.50
2022-08-19T07:45:03.781Z,21.70
2022-08-19T07:47:48.288Z,21.80
2022-08-19T07:50:20.718Z,22.00
2022-08-19T07:52:50.838Z,22.30
2022-08-19T07:55:41.998Z,22.30
2022-08-19T07:58:13.539Z,22.40
2022-08-19T08:00:42.569Z,22.50
2022-08-19T08:03:11.081Z,22.50
2022-08-19T08:05:57.160Z,22.60
2022-08-19T08:08:43.922Z,22.80
2022-08-19T08:11:15.536Z,22.90
2022-08-19T08:13:43.580Z,23.20
2022-08-19T08:16:13.971Z,23.20
2022-08-19T08:18:43.336Z,23.20
2022-08-19T08:21:17.812Z,23.40
2022-08-19T08:23:45.045Z,23.50
2022-08-19T08:26:14.020Z,23.70
2022-08-19T08:28:43.078Z,23.70
2022-08-19T08:31:15.515Z,24.00
2022-08-19T08:33:43.272Z,23.90
2022-08-19T08:36:10.918Z,23.90
2022-08-19T08:38:40.952Z,24.10
2022-08-19T08:41:20.634Z,24.10
2022-08-19T08:43:52.895Z,24.30
2022-08-19T08:46:43.176Z,24.50
2022-08-19T08:49:44.583Z,24.30
2022-08-19T08:52:32.175Z,24.30
2022-08-19T08:55:10.478Z,24.60
2022-08-19T08:57:52.256Z,24.60
2022-08-19T09:00:26.075Z,24.60
2022-08-19T09:02:54.831Z,24.60
2022-08-19T09:05:26.001Z,24.90
2022-08-19T09:08:41.741Z,25.00
2022-08-19T09:11:42.860Z,25.10
2022-08-19T09:14:47.239Z,25.30
2022-08-19T09:17:10.795Z,25.60
2022-08-19T09:19:53.253Z,25.50
2022-08-19T09:22:25.996Z,25.50
2022-08-19T09:24:55.508Z,25.60
2022-08-19T09:27:42.440Z,25.30
2022-08-19T09:30:24.853Z,25.50
2022-08-19T09:32:55.762Z,25.60
2022-08-19T09:35:28.389Z,25.70
2022-08-19T09:37:59.628Z,25.90
2022-08-19T09:40:35.456Z,25.70
2022-08-19T09:43:10.102Z,25.90
2022-08-19T09:45:40.327Z,26.20
2022-08-19T09:48:07.502Z,26.30
2022-08-19T09:50:39.409Z,26.30
2022-08-19T09:53:25.221Z,26.30
2022-08-19T09:55:55.530Z,26.50
2022-08-19T09:58:26.738Z,26.40
2022-08-19T10:00:55.261Z,26.60
2022-08-19T10:03:25.581Z,26.70
2022-08-19T10:06:01.290Z,26.90
2022-08-19T10:08:36.008Z,26.80
2022-08-19T10:11:27.995Z,26.50
2022-08-19T10:13:53.156Z,26.90
2022-08-19T10:16:25.973Z,26.90
2022-08-19T10:18:59.103Z,26.90
2022-08-19T10:21:33.733Z,26.80
2022-08-19T10:24:05.194Z,26.80
2022-08-19T10:26:37.913Z,27.00
2022-08-19T10:29:06.575Z,27.10
2022-08-19T10:32:00.510Z,27.30
2022-08-19T10:34:27.919Z,27.00
2022-08-19T10:37:00.966Z,27.30
2022-08-19T10:39:32.825Z,27.40
2022-08-19T10:42:14.343Z,27.40
2022-08-19T10:44:42.411Z,27.40
2022-08-19T10:47:17.621Z,27.30
2022-08-19T10:50:11.869Z,27.40
2022-08-19T10:52:49.266Z,27.50
2022-08-19T10:55:42.654Z,27.60
2022-08-19T10:58:23.037Z,27.90
2022-08-19T11:00:57.459Z,28.00
2022-08-19T11:03:26.248Z,28.00
2022-08-19T11:06:06.786Z,27.70
2022-08-19T11:08:38.666Z,27.80
2022-08-19T11:11:07.768Z,28.20
2022-08-19T11:13:40.349Z,28.40
2022-08-19T11:16:22.479Z,28.60
2022-08-19T11:18:54.685Z,28.70
2022-08-19T11:21:32.733Z,28.50
2022-08-19T11:24:06.876Z,28.40
2022-08-19T11:26:36.491Z,28.30
2022-08-19T11:29:07.044Z,28.00
2022-08-19T11:31:37.153Z,27.90
2022-08-19T11:34:07.337Z,27.80
2022-08-19T11:36:37.848Z,27.90
2022-08-19T11:39:07.835Z,28.10
2022-08-19T11:41:35.464Z,28.30
2022-08-19T11:44:04.249Z,28.30
2022-08-19T11:46:32.461Z,28.40
2022-08-19T11:49:01.635Z,28.50
2022-08-19T11:51:29.763Z,28.70
2022-08-19T11:53:59.752Z,29.30
2022-08-19T11:56:28.090Z,29.40
2022-08-19T11:58:57.664Z,29.40
2022-08-19T12:01:26.925Z,29.50
2022-08-19T12:03:56.880Z,29.60
2022-08-19T12:06:32.619Z,29.50
2022-08-19T12:09:05.691Z,29.20
2022-08-19T12:11:34.868Z,28.90
2022-08-19T12:14:02.531Z,28.70
2022-08-19T12:16:32.539Z,28.70
2022-08-19T12:19:05.076Z,29.10
2022-08-19T12:21:35.213Z,29.20
2022-08-19T12:24:05.449Z,29.10
2022-08-19T12:26:34.301Z,28.90
2022-08-19T12:29:04.209Z,28.60
2022-08-19T12:31:32.061Z,28.60
2022-08-19T12:33:59.596Z,28.60
2022-08-19T12:36:26.634Z,28.50
2022-08-19T12:38:54.474Z,28.60
2022-08-19T12:41:23.296Z,28.60
2022-08-19T12:43:50.986Z,28.60
2022-08-19T12:46:20.613Z,28.80
2022-08-19T12:48:51.191Z,28.90
2022-08-19T12:51:22.662Z,29.20
2022-08-19T12:53:50.774Z,29.20
2022-08-19T12:56:23.064Z,28.90
2022-08-19T12:58:52.889Z,28.90
2022-08-19T13:01:22.540Z,28.70
2022-08-19T13:03:53.358Z,28.80
2022-08-19T13:06:20.611Z,29.00
2022-08-19T13:08:48.660Z,29.40
2022-08-19T13:11:20.563Z,29.60
2022-08-19T13:13:51.352Z,29.60
2022-08-19T13:16:21.022Z,29.60
2022-08-19T13:18:48.657Z,29.20
2022-08-19T13:21:16.745Z,29.10
2022-08-19T13:23:43.843Z,29.40
2022-08-19T13:26:12.808Z,29.50
2022-08-19T13:29:00.631Z,29.70
2022-08-19T13:31:49.264Z,29.70
2022-08-19T13:34:20.032Z,29.60
2022-08-19T13:36:47.500Z,29.80
2022-08-19T13:39:14.624Z,29.80
2022-08-19T13:41:48.936Z,29.60
2022-08-19T13:44:19.101Z,29.70
2022-08-19T13:46:49.460Z,29.70
2022-08-19T13:49:21.528Z,29.60
2022-08-19T13:51:48.762Z,29.70
2022-08-19T13:54:15.818Z,29.80
2022-08-19T13:56:46.473Z,29.80
2022-08-19T13:59:13.565Z,29.40
2022-08-19T14:01:42.131Z,29.20
2022-08-19T14:04:10.097Z,28.90
2022-08-19T14:06:37.391Z,28.50
2022-08-19T14:09:06.027Z,28.20
2022-08-19T14:11:33.169Z,28.10
2022-08-19T14:14:00.175Z,28.00
2022-08-19T14:16:28.271Z,27.90
2022-08-19T14:18:55.827Z,27.80
2022-08-19T14:21:25.505Z,27.70
2022-08-19T14:23:53.661Z,27.50
2022-08-19T14:26:22.604Z,27.30
2022-08-19T14:28:50.317Z,27.30
2022-08-19T14:31:20.167Z,27.40
2022-08-19T14:33:48.881Z,27.40
2022-08-19T14:36:16.299Z,27.20
2022-08-19T14:38:44.285Z,26.90
2022-08-19T14:41:22.303Z,27.00
2022-08-19T14:43:51.797Z,27.10
2022-08-19T14:46:23.784Z,27.00
2022-08-19T14:48:53.112Z,27.20
2022-08-19T14:51:22.500Z,27.00
2022-08-19T14:53:50.456Z,27.00
2022-08-19T14:56:23.746Z,27.10
2022-08-19T14:58:53.947Z,26.90
2022-08-19T15:01:23.405Z,26.70
2022-08-19T15:03:53.852Z,26.90
2022-08-19T15:06:23.159Z,26.50
2022-08-19T15:08:52.519Z,26.80
2022-08-19T15:11:23.555Z,27.20
2022-08-19T15:13:51.882Z,27.30
2022-08-19T15:16:20.425Z,27.20
2022-08-19T15:18:55.605Z,27.10
2022-08-19T15:21:27.286Z,26.40
2022-08-19T15:23:57.531Z,26.20
2022-08-19T15:26:27.241Z,25.90
2022-08-19T15:28:54.948Z,25.70
2022-08-19T15:31:25.506Z,25.60
2022-08-19T15:33:58.429Z,25.70
2022-08-19T15:36:27.055Z,25.40
2022-08-19T15:38:56.388Z,25.40
2022-08-19T15:41:27.951Z,25.40
2022-08-19T15:44:00.514Z,25.70
2022-08-19T15:46:32.105Z,25.40
2022-08-19T15:49:00.655Z,25.90
2022-08-19T15:51:35.367Z,26.20
2022-08-19T15:54:21.625Z,26.10
2022-08-19T15:57:09.221Z,25.80
2022-08-19T15:59:56.763Z,25.80
2022-08-19T16:02:47.285Z,25.60
2022-08-19T16:05:37.755Z,25.50
2022-08-19T16:08:06.348Z,25.30
2022-08-19T16:10:33.549Z,25.20
2022-08-19T16:13:00.733Z,25.20
2022-08-19T16:15:30.575Z,25.10
2022-08-19T16:17:58.626Z,25.10
2022-08-19T16:20:27.665Z,25.00
2022-08-19T16:22:58.587Z,25.00
2022-08-19T16:25:29.142Z,24.80
2022-08-19T16:28:07.880Z,24.70
2022-08-19T16:30:38.470Z,24.60
2022-08-19T16:33:06.453Z,24.60
2022-08-19T16:35:33.642Z,24.60
2022-08-19T16:38:01.980Z,24.60
2022-08-19T16:40:29.055Z,24.60
2022-08-19T16:42:56.445Z,24.50
2022-08-19T16:45:23.577Z,24.60
2022-08-19T16:47:50.758Z,24.60
2022-08-19T16:50:25.436Z,24.70
2022-08-19T16:53:09.418Z,24.60
2022-08-19T16:55:37.633Z,24.60
2022-08-19T16:58:04.966Z,24.60
2022-08-19T17:00:32.404Z,24.50
2022-08-19T17:03:14.658Z,24.50
2022-08-19T17:05:47.973Z,24.40
2022-08-19T17:08:16.927Z,24.40
2022-08-19T17:10:56.842Z,24.30
2022-08-19T17:13:32.470Z,24.30
2022-08-19T17:15:59.620Z,24.20
2022-08-19T17:18:26.900Z,24.30
2022-08-19T17:21:01.047Z,24.30
2022-08-19T17:23:42.112Z,24.30
2022-08-19T17:26:14.112Z,24.30
2022-08-19T17:28:51.028Z,24.30
2022-08-19T17:31:21.482Z,24.30
2022-08-19T17:33:49.110Z,24.30
2022-08-19T17:36:19.363Z,24.30
2022-08-19T17:38:46.920Z,24.20
2022-08-19T17:41:14.042Z,24.10
2022-08-19T17:43:43.948Z,24.10
2022-08-19T17:46:18.067Z,24.00
2022-08-19T17:48:52.741Z,23.90
2022-08-19T17:51:40.655Z,23.80
2022-08-19T17:54:18.555Z,23.60
2022-08-19T17:56:46.653Z,23.50
2022-08-19T17:59:15.444Z,23.40
2022-08-19T18:01:53.973Z,23.30
2022-08-19T18:04:25.064Z,23.20
2022-08-19T18:06:55.130Z,23.00
2022-08-19T18:09:41.931Z,22.90
2022-08-19T18:12:14.121Z,22.80
2022-08-19T18:14:42.026Z,22.70
2022-08-19T18:17:14.297Z,22.70
2022-08-19T18:19:43.858Z,22.60
2022-08-19T18:22:33.572Z,22.40
2022-08-19T18:25:02.837Z,22.30
2022-08-19T18:27:30.513Z,22.10
2022-08-19T18:29:59.574Z,22.00
2022-08-19T18:32:39.002Z,21.80
2022-08-19T18:35:12.547Z,21.80
2022-08-19T18:37:41.595Z,21.70
2022-08-19T18:40:31.659Z,21.70
2022-08-19T18:43:17.696Z,21.60
2022-08-19T18:46:04.077Z,21.50
2022-08-19T18:48:54.218Z,21.40
2022-08-19T18:51:27.730Z,21.40
2022-08-19T18:53:58.653Z,21.30
2022-08-19T18:56:29.213Z,21.20
2022-08-19T18:58:56.731Z,21.10
2022-08-19T19:01:34.911Z,21.10
2022-08-19T19:04:06.048Z,21.00
2022-08-19T19:06:40.360Z,21.00
2022-08-19T19:09:16.345Z,20.80
2022-08-19T19:11:48.307Z,20.90
2022-08-19T19:14:47.797Z,20.80
2022-08-19T19:17:14.674Z,20.70
2022-08-19T19:19:43.950Z,20.70
2022-08-19T19:22:18.592Z,20.70
2022-08-19T19:24:46.061Z,20.60
2022-08-19T19:27:16.245Z,20.60
2022-08-19T19:29:46.466Z,20.50
2022-08-19T19:32:35.807Z,20.50
2022-08-19T19:35:07.940Z,20.50
2022-08-19T19:37:35.035Z,20.50
2022-08-19T19:40:02.556Z,20.50
2022-08-19T19:42:29.603Z,20.50
2022-08-19T19:44:56.765Z,20.50
2022-08-19T19:47:24.355Z,20.40
2022-08-19T19:50:13.266Z,20.40
2022-08-19T19:52:41.056Z,20.40
2022-08-19T19:55:17.928Z,20.30
2022-08-19T19:57:49.152Z,20.40
2022-08-19T20:00:18.853Z,20.30
2022-08-19T20:02:50.093Z,20.30
2022-08-19T20:05:21.293Z,20.30
2022-08-19T20:08:09.692Z,20.20
2022-08-19T20:10:37.940Z,20.20
2022-08-19T20:13:06.877Z,20.20
2022-08-19T20:15:37.911Z,20.20
2022-08-19T20:18:07.566Z,20.20
2022-08-19T20:20:35.391Z,20.10
2022-08-19T20:23:02.477Z,20.20
2022-08-19T20:25:30.396Z,20.20
2022-08-19T20:27:57.620Z,20.20
2022-08-19T20:30:25.437Z,20.20
2022-08-19T20:32:56.412Z,20.20
2022-08-19T20:35:24.090Z,20.20
2022-08-19T20:37:53.831Z,20.20
2022-08-19T20:40:24.520Z,20.20
2022-08-19T20:42:51.579Z,20.20
2022-08-19T20:45:32.133Z,20.10
2022-08-19T20:48:05.351Z,20.10
2022-08-19T20:50:35.189Z,20.10
2022-08-19T20:53:13.888Z,20.10
2022-08-19T20:55:45.399Z,20.10
2022-08-19T20:58:13.441Z,20.10
2022-08-19T21:00:45.519Z,20.10
2022-08-19T21:03:18.805Z,20.10
2022-08-19T21:05:46.463Z,20.00
2022-08-19T21:08:14.592Z,20.00
2022-08-19T21:10:42.506Z,20.00
2022-08-19T21:13:09.939Z,20.00
2022-08-19T21:15:40.558Z,20.00
2022-08-19T21:18:08.280Z,20.00
2022-08-19T21:20:35.438Z,20.00
2022-08-19T21:23:10.580Z,20.00
2022-08-19T21:25:38.222Z,20.10
2022-08-19T21:28:06.073Z,20.00
2022-08-19T21:30:34.753Z,20.00
2022-08-19T21:33:04.483Z,20.10
2022-08-19T21:35:32.090Z,20.00
2022-08-19T21:37:59.191Z,20.00
2022-08-19T21:40:26.985Z,20.00
2022-08-19T21:42:54.194Z,19.90
2022-08-19T21:45:22.888Z,19.90
2022-08-19T21:47:50.735Z,19.80
2022-08-19T21:50:17.932Z,19.90
2022-08-19T21:52:46.495Z,19.80
2022-08-19T21:55:14.740Z,19.80
2022-08-19T21:57:42.608Z,19.70
2022-08-19T22:00:18.777Z,19.70
2022-08-19T22:02:45.965Z,19.70
2022-08-19T22:05:13.787Z,19.70
2022-08-19T22:07:42.615Z,19.60
2022-08-19T22:10:10.908Z,19.70
2022-08-19T22:12:51.520Z,19.60
2022-08-19T22:15:23.856Z,19.60
2022-08-19T22:17:51.025Z,19.60
2022-08-19T22:20:23.533Z,19.60
2022-08-19T22:22:58.501Z,19.60
2022-08-19T22:25:40.510Z,19.60
2022-08-19T22:28:10.976Z,19.60
2022-08-19T22:30:42.317Z,19.50
2022-08-19T22:33:16.962Z,19.50
2022-08-19T22:35:46.918Z,19.50
2022-08-19T22:38:15.798Z,19.50
2022-08-19T22:40:48.400Z,19.50
2022-08-19T22:43:24.476Z,19.50
2022-08-19T22:45:54.547Z,19.40
2022-08-19T22:48:26.297Z,19.40
2022-08-19T22:51:13.108Z,19.40
2022-08-19T22:53:42.993Z,19.50
2022-08-19T22:56:15.065Z,19.40
2022-08-19T22:58:43.477Z,19.40
2022-08-19T23:01:14.703Z,19.40
2022-08-19T23:03:56.419Z,19.40
2022-08-19T23:06:23.452Z,19.40
2022-08-19T23:08:58.740Z,19.40
2022-08-19T23:11:25.878Z,19.30
2022-08-19T23:13:53.099Z,19.30
2022-08-19T23:16:20.651Z,19.20
2022-08-19T23:18:48.163Z,19.30
2022-08-19T23:21:16.535Z,19.20
2022-08-19T23:23:44.101Z,19.20
2022-08-19T23:26:12.013Z,19.10
2022-08-19T23:28:58.049Z,19.10
2022-08-19T23:31:26.906Z,19.10
2022-08-19T23:33:53.922Z,19.10
2022-08-19T23:36:22.498Z,19.10
2022-08-19T23:38:52.212Z,19.00
2022-08-19T23:41:21.960Z,19.00
2022-08-19T23:43:51.423Z,19.00
2022-08-19T23:46:27.569Z,18.90
2022-08-19T23:48:56.669Z,18.90
2022-08-19T23:51:24.568Z,18.90
2022-08-19T23:53:51.635Z,18.90
2022-08-19T23:56:18.700Z,18.90
2022-08-19T23:58:47.095Z,18.80
